Tenjinmaru No11 — JD3353 — position and weather

sailwx.info

Track history (hours):
 
Tides and Currents Weather Stations Pressure Air Temp Water Temp Dewpoint Dewpoint Depression Visibility Wind Speed Wind Dir Waves Ship Positions

Tenjinmaru No11

Last reported at 2018-Feb-19 05:18 UTC. Time now 2018-Feb-19 14:17 UTC.
Position N 34°35' E 138°47'.

Length 75 m; draft 4.5 m.

Type: Cargo ship. MMSI: 431003485.

Date/timePositionNaut miles runAvg speedWind from/ knotsBaromVisibWave heightAir tempDewpointWater temp
2018-Feb-19 05:18N 34°35' E 138°47'411.6
2018-Feb-19 04:58N 34°35' E 138°51'710.3
2018-Feb-19 04:19N 34°38' E 138°59'410.7
2018-Feb-19 03:59N 34°41' E 139°02'711.6
2018-Feb-19 03:25N 34°46' E 139°07'1211.0
2018-Feb-19 02:18N 34°55' E 139°17'410.3
2018-Feb-19 01:57N 34°56' E 139°21'610.0
2018-Feb-19 01:22N 34°59' E 139°27'510.2
2018-Feb-19 00:51N 35°02' E 139°32'510.7
2018-Feb-19 00:20N 35°05' E 139°38'411.7
2018-Feb-18 23:59N 35°07' E 139°42'611.8
2018-Feb-18 23:30N 35°12' E 139°46'510.8
2018-Feb-18 23:01N 35°17' E 139°45'611.0
2018-Feb-18 22:30N 35°23' E 139°42'5 9.2
2018-Feb-18 22:00N 35°25' E 139°47'5 9.3
2018-Feb-18 21:30N 35°22' E 139°51'0 0.0
2018-Feb-18 21:00N 35°22' E 139°51'0 0.0
2018-Feb-18 20:31N 35°22' E 139°51'0 0.0
2018-Feb-18 20:01N 35°22' E 139°51'0 0.0
2018-Feb-18 19:30N 35°22' E 139°51'0 0.0
2018-Feb-18 19:01N 35°22' E 139°51'0 0.0
2018-Feb-18 18:30N 35°22' E 139°51'0 0.0
2018-Feb-18 18:01N 35°22' E 139°51'0 0.0
2018-Feb-18 17:31N 35°22' E 139°51'0 0.0
2018-Feb-18 17:00N 35°22' E 139°51'0 0.0
2018-Feb-18 16:30N 35°22' E 139°51'0 0.0
2018-Feb-18 16:00N 35°22' E 139°51'0 0.2
2018-Feb-18 15:31N 35°21' E 139°51'2 3.3
2018-Feb-18 15:00N 35°22' E 139°49'2 3.6
2018-Feb-18 14:30N 35°22' E 139°52'2 3.8
2018-Feb-18 14:00N 35°22' E 139°54'0 0.0
2018-Feb-18 13:30N 35°22' E 139°54'0 0.0
2018-Feb-18 13:00N 35°22' E 139°54'0 0.0
2018-Feb-18 12:30N 35°22' E 139°54'0 0.0
2018-Feb-18 12:00N 35°22' E 139°54'0 0.0
2018-Feb-18 11:30N 35°22' E 139°54'0 0.0
2018-Feb-18 11:00N 35°22' E 139°54'0 0.0
2018-Feb-18 10:30N 35°22' E 139°54'0 0.0
2018-Feb-18 10:00N 35°22' E 139°54'0 0.6
2018-Feb-18 09:30N 35°22' E 139°53'3 6.0
2018-Feb-18 09:00N 35°24' E 139°50'0 0.1
2018-Feb-18 08:31N 35°24' E 139°50'0 0.1
2018-Feb-18 08:00N 35°24' E 139°50'0 0.0
2018-Feb-18 07:30N 35°24' E 139°50'0 0.0
2018-Feb-18 07:00N 35°24' E 139°50'0 0.1
2018-Feb-18 06:31N 35°24' E 139°50'0 0.0
2018-Feb-18 06:00N 35°24' E 139°50'0 0.1
2018-Feb-18 05:30N 35°24' E 139°50'0 0.0
2018-Feb-18 05:01N 35°24' E 139°50'0 0.1
2018-Feb-18 04:31N 35°24' E 139°50'0 0.0
2018-Feb-18 04:00N 35°24' E 139°50'0 0.0
2018-Feb-18 03:30N 35°24' E 139°50'0 0.0
2018-Feb-18 03:00N 35°24' E 139°50'0 0.0
2018-Feb-18 02:30N 35°24' E 139°50'0 0.0
2018-Feb-18 02:00N 35°24' E 139°50'0 0.0
2018-Feb-18 01:31N 35°24' E 139°50'0 0.0
2018-Feb-18 01:00N 35°24' E 139°50'0 0.0
2018-Feb-18 00:31N 35°24' E 139°50'0 0.0
2018-Feb-18 00:00N 35°24' E 139°50'0 0.0
2018-Feb-17 23:30N 35°24' E 139°50'0 0.0
2018-Feb-17 23:00N 35°24' E 139°50'0 0.0
2018-Feb-17 22:31N 35°24' E 139°50'0 0.0
2018-Feb-17 22:01N 35°24' E 139°50'0 0.0
2018-Feb-17 21:30N 35°24' E 139°50'0 0.0
2018-Feb-17 21:00N 35°24' E 139°50'0 0.0
2018-Feb-17 20:30N 35°24' E 139°50'0 0.0
2018-Feb-17 20:01N 35°24' E 139°50'0 0.0
2018-Feb-17 19:31N 35°24' E 139°50'0 0.0
2018-Feb-17 19:00N 35°24' E 139°50'0 0.0
2018-Feb-17 18:30N 35°24' E 139°50'0 0.0
2018-Feb-17 18:00N 35°24' E 139°50'0 0.0
2018-Feb-17 17:30N 35°24' E 139°50'0 0.0
2018-Feb-17 17:00N 35°24' E 139°50'0 0.0
2018-Feb-17 16:30N 35°24' E 139°50'0 0.0
2018-Feb-17 16:00N 35°24' E 139°50'0 0.1
2018-Feb-17 15:30N 35°24' E 139°50'0 0.1
2018-Feb-17 15:01N 35°24' E 139°50'0 0.0
2018-Feb-17 14:30N 35°24' E 139°50'0 0.0
2018-Feb-17 14:00N 35°24' E 139°50'0 0.0
2018-Feb-17 13:31N 35°24' E 139°50'0 0.0
2018-Feb-17 13:00N 35°24' E 139°50'0 0.0
2018-Feb-17 12:30N 35°24' E 139°50'0 0.0
2018-Feb-17 12:00N 35°24' E 139°50'0 0.0
2018-Feb-17 11:30N 35°24' E 139°50'0 0.0
2018-Feb-17 11:01N 35°24' E 139°50'0 0.0
2018-Feb-17 10:31N 35°24' E 139°50'0 0.0
2018-Feb-17 10:00N 35°24' E 139°50'0 0.0
2018-Feb-17 09:30N 35°24' E 139°50'0 0.0
2018-Feb-17 09:00N 35°24' E 139°50'0 0.0
2018-Feb-17 08:30N 35°24' E 139°50'0 0.0
2018-Feb-17 08:00N 35°24' E 139°50'0 0.0
2018-Feb-17 07:31N 35°24' E 139°50'0 0.0
2018-Feb-17 07:01N 35°24' E 139°50'0 0.0
2018-Feb-17 06:30N 35°24' E 139°50'0 0.0
2018-Feb-17 06:00N 35°24' E 139°50'0 0.1
2018-Feb-17 05:30N 35°24' E 139°50'0 0.0
2018-Feb-17 05:00N 35°24' E 139°50'2 3.5
2018-Feb-17 04:30N 35°22' E 139°50'1 1.5
2018-Feb-17 04:00N 35°22' E 139°51'0 0.0
2018-Feb-17 03:30N 35°22' E 139°51'0 0.0
2018-Feb-17 03:00N 35°22' E 139°51'0 0.0
2018-Feb-17 02:30N 35°22' E 139°51'0 0.0
2018-Feb-17 02:01N 35°22' E 139°51'0 0.0
2018-Feb-17 01:29N 35°22' E 139°51'0 0.0
2018-Feb-17 01:00N 35°22' E 139°51'0 0.0
2018-Feb-17 00:30N 35°22' E 139°51'0 0.0
2018-Feb-17 00:00N 35°22' E 139°51'0 0.0
2018-Feb-16 23:30N 35°22' E 139°51'0 0.0
2018-Feb-16 23:00N 35°22' E 139°51'0 0.0
2018-Feb-16 22:30N 35°22' E 139°51'0 0.0
2018-Feb-16 22:00N 35°22' E 139°51'0 0.0
2018-Feb-16 21:30N 35°22' E 139°51'0 0.0
2018-Feb-16 21:00N 35°22' E 139°51'0 0.0
2018-Feb-16 20:30N 35°22' E 139°51'0 0.2
2018-Feb-16 20:00N 35°21' E 139°51'4 8.6
2018-Feb-16 19:30N 35°24' E 139°47'510.6
2018-Feb-16 19:01N 35°19' E 139°44'611.1
2018-Feb-16 18:30N 35°14' E 139°47'611.1
2018-Feb-16 18:00N 35°09' E 139°47'610.8
2018-Feb-16 17:29N 35°03' E 139°45'18 6.8
2018-Feb-16 14:53N 34°58' E 140°06'5 0.2
2018-Feb-15 16:58N 35°00' E 140°12'510.5
2018-Feb-15 16:30N 34°58' E 140°07'710.3
2018-Feb-15 15:47N 34°54' E 139°59'16 8.2
2018-Feb-15 13:49N 35°03' E 139°43'310.6
2018-Feb-15 13:30N 35°06' E 139°44'611.8
2018-Feb-15 13:00N 35°12' E 139°46'611.7
2018-Feb-15 12:30N 35°18' E 139°44'5 9.0
2018-Feb-15 11:59N 35°21' E 139°40'0 0.1
2018-Feb-15 11:29N 35°21' E 139°40'0 0.0
2018-Feb-15 10:59N 35°21' E 139°40'0 0.0
2018-Feb-15 10:29N 35°21' E 139°40'0 0.0
2018-Feb-15 09:59N 35°21' E 139°40'0 0.0
2018-Feb-15 09:26N 35°21' E 139°40'0 0.1
2018-Feb-15 08:59N 35°21' E 139°40'0 0.1
2018-Feb-15 08:29N 35°21' E 139°40'0 0.1
2018-Feb-15 07:59N 35°21' E 139°40'0 0.0
2018-Feb-15 07:29N 35°21' E 139°40'0 0.1
2018-Feb-15 07:01N 35°21' E 139°40'0 0.0
2018-Feb-15 06:30N 35°21' E 139°40'0 0.0
2018-Feb-15 06:00N 35°21' E 139°40'0 0.0
2018-Feb-15 05:30N 35°21' E 139°40'0 0.0
2018-Feb-15 05:00N 35°21' E 139°40'0 0.1
2018-Feb-15 04:30N 35°21' E 139°40'0 0.1
2018-Feb-15 04:01N 35°21' E 139°40'3 6.5
2018-Feb-15 03:30N 35°24' E 139°43'611.2
2018-Feb-15 03:00N 35°28' E 139°48'911.4
2018-Feb-15 02:11N 35°33' E 139°58'211.5
2018-Feb-15 02:00N 35°34' E 139°60'510.6
2018-Feb-15 01:30N 35°36' E 140°05'1 1.5
2018-Feb-15 01:00N 35°37' E 140°05'0 0.0
2018-Feb-15 00:30N 35°37' E 140°05'0 0.0
2018-Feb-15 00:00N 35°37' E 140°05'0 0.0
2018-Feb-14 23:30N 35°37' E 140°05'0 0.5
2018-Feb-14 23:00N 35°37' E 140°05'3 5.3
2018-Feb-14 22:30N 35°34' E 140°03'0 0.0
2018-Feb-14 22:00N 35°34' E 140°03'0 0.0
2018-Feb-14 21:30N 35°34' E 140°03'0 0.1
2018-Feb-14 21:00N 35°34' E 140°03'0 0.1
2018-Feb-14 20:30N 35°34' E 140°03'0 0.0
2018-Feb-14 20:00N 35°34' E 140°03'0 0.0
2018-Feb-14 19:30N 35°34' E 140°03'0 0.1
2018-Feb-14 19:00N 35°34' E 140°03'0 0.1
2018-Feb-14 18:30N 35°34' E 140°03'0 0.1
2018-Feb-14 18:00N 35°34' E 140°03'0 0.1
2018-Feb-14 17:30N 35°34' E 140°03'0 0.1
2018-Feb-14 17:00N 35°34' E 140°03'0 0.0
2018-Feb-14 16:30N 35°34' E 140°03'0 0.0
2018-Feb-14 16:00N 35°34' E 140°03'0 0.0
2018-Feb-14 15:30N 35°34' E 140°03'0 0.1
2018-Feb-14 15:00N 35°34' E 140°03'0 0.1
2018-Feb-14 14:30N 35°34' E 140°03'0 0.1
2018-Feb-14 14:00N 35°34' E 140°03'0 0.1
2018-Feb-14 13:30N 35°34' E 140°03'0 0.0
2018-Feb-14 13:00N 35°34' E 140°03'0 0.1
2018-Feb-14 12:30N 35°34' E 140°03'0 0.1
2018-Feb-14 12:00N 35°34' E 140°03'0 0.1
2018-Feb-14 11:30N 35°34' E 140°03'0 0.1
2018-Feb-14 11:00N 35°34' E 140°03'0 0.1
2018-Feb-14 10:30N 35°34' E 140°03'0 0.0
2018-Feb-14 10:00N 35°34' E 140°03'1 2.5
2018-Feb-14 09:30N 35°34' E 140°02'811.3
2018-Feb-14 08:47N 35°30' E 139°53'311.3
2018-Feb-14 08:31N 35°28' E 139°51'611.2
2018-Feb-14 08:01N 35°23' E 139°46'610.6
2018-Feb-14 07:29N 35°18' E 139°45'510.5
2018-Feb-14 07:01N 35°13' E 139°47'510.6
2018-Feb-14 06:30N 35°08' E 139°46'510.9
2018-Feb-14 06:00N 35°04' E 139°41'611.9
2018-Feb-14 05:29N 35°00' E 139°35'1013.7
2018-Feb-14 04:45N 34°55' E 139°25'513.7
2018-Feb-14 04:26N 34°52' E 139°21'613.5
2018-Feb-14 04:00N 34°48' E 139°16'912.6
2018-Feb-14 03:17N 34°42' E 139°07'311.6
2018-Feb-14 03:00N 34°40' E 139°04'611.4
2018-Feb-14 02:30N 34°37' E 138°58'611.9
2018-Feb-14 02:00N 34°35' E 138°52'611.9
2018-Feb-14 01:30N 34°34' E 138°45'610.7
2018-Feb-14 00:58N 34°33' E 138°38'510.4
2018-Feb-14 00:28N 34°33' E 138°31'510.8
2018-Feb-13 23:59N 34°32' E 138°25'711.5
2018-Feb-13 23:25N 34°32' E 138°17'612.6
2018-Feb-13 22:54N 34°31' E 138°09'160 9.4
2018-Feb-13 05:49N 33°53' E 135°02'411.5
2018-Feb-13 05:30N 33°56' E 135°01'611.8
2018-Feb-13 05:00N 34°02' E 135°01'611.9
2018-Feb-13 04:31N 34°08' E 135°02'611.9
2018-Feb-13 04:00N 34°14' E 135°03'612.3
2018-Feb-13 03:31N 34°20' E 135°05'5 9.8
2018-Feb-13 03:01N 34°23' E 135°09'0 0.1
2018-Feb-13 02:30N 34°23' E 135°09'0 0.1
2018-Feb-13 02:01N 34°23' E 135°09'0 0.0
2018-Feb-13 01:31N 34°23' E 135°09'0 0.0
2018-Feb-13 01:01N 34°23' E 135°09'0 0.0
2018-Feb-13 00:30N 34°23' E 135°09'0 0.0
2018-Feb-13 00:01N 34°23' E 135°09'0 0.0
2018-Feb-12 23:30N 34°23' E 135°09'0 0.0
2018-Feb-12 23:01N 34°23' E 135°09'0 0.0
2018-Feb-12 22:30N 34°23' E 135°09'0 0.0
2018-Feb-12 22:00N 34°23' E 135°09'0 0.0
2018-Feb-12 21:31N 34°23' E 135°09'0 0.0
2018-Feb-12 21:01N 34°23' E 135°09'0 0.0
2018-Feb-12 20:30N 34°23' E 135°09'0 0.0
2018-Feb-12 20:00N 34°23' E 135°09'0 0.0
2018-Feb-12 19:30N 34°23' E 135°09'0 0.0
2018-Feb-12 19:00N 34°23' E 135°09'0 0.0
2018-Feb-12 18:30N 34°23' E 135°09'0 0.0
2018-Feb-12 18:01N 34°23' E 135°09'0 0.0
2018-Feb-12 17:31N 34°23' E 135°09'0 0.1
2018-Feb-12 17:01N 34°23' E 135°09'0 0.0
2018-Feb-12 16:30N 34°23' E 135°09'0 0.0
2018-Feb-12 16:01N 34°23' E 135°09'0 0.0
2018-Feb-12 15:31N 34°23' E 135°09'0 0.0
2018-Feb-12 15:00N 34°23' E 135°09'0 0.0
2018-Feb-12 14:30N 34°23' E 135°09'0 0.0
2018-Feb-12 14:01N 34°23' E 135°09'0 0.0
2018-Feb-12 13:31N 34°23' E 135°09'0 0.1
2018-Feb-12 13:01N 34°23' E 135°09'0 0.0
2018-Feb-12 12:30N 34°23' E 135°09'0 0.0
2018-Feb-12 12:00N 34°23' E 135°09'0 0.0
2018-Feb-12 11:31N 34°23' E 135°09'0 0.0
2018-Feb-12 11:01N 34°23' E 135°09'0 0.0
2018-Feb-12 10:30N 34°23' E 135°09'0 0.0
2018-Feb-12 10:01N 34°23' E 135°09'0 0.0
2018-Feb-12 09:31N 34°23' E 135°09'0 0.0
2018-Feb-12 09:00N 34°23' E 135°09'0 0.0
2018-Feb-12 08:30N 34°23' E 135°09'0 0.1
2018-Feb-12 08:00N 34°23' E 135°09'0 0.0
2018-Feb-12 07:31N 34°23' E 135°09'0 0.0
2018-Feb-12 07:01N 34°23' E 135°09'0 0.0
2018-Feb-12 06:31N 34°23' E 135°09'0 0.0
2018-Feb-12 06:01N 34°23' E 135°09'0 0.0
2018-Feb-12 05:31N 34°23' E 135°09'0 0.0
2018-Feb-12 05:00N 34°23' E 135°09'0 0.0
2018-Feb-12 04:31N 34°23' E 135°09'0 0.0
2018-Feb-12 04:00N 34°23' E 135°09'0 0.0
2018-Feb-12 03:31N 34°23' E 135°09'0 0.0
2018-Feb-12 03:00N 34°23' E 135°09'0 0.0
2018-Feb-12 02:30N 34°23' E 135°09'0 0.0
2018-Feb-12 02:01N 34°23' E 135°09'0 0.0
2018-Feb-12 01:30N 34°23' E 135°09'0 0.0
2018-Feb-12 01:01N 34°23' E 135°09'0 0.0
2018-Feb-12 00:31N 34°23' E 135°09'4 7.9
2018-Feb-12 00:00N 34°27' E 135°12'510.8
2018-Feb-11 23:30N 34°31' E 135°16'510.7
2018-Feb-11 23:01N 34°35' E 135°20'510.6
2018-Feb-11 22:30N 34°39' E 135°24'3 5.7
2018-Feb-11 22:00N 34°39' E 135°28'0 0.0
2018-Feb-11 21:31N 34°39' E 135°28'0 0.0
2018-Feb-11 21:01N 34°39' E 135°28'0 0.0
2018-Feb-11 20:30N 34°39' E 135°28'0 0.0
2018-Feb-11 20:00N 34°39' E 135°28'0 0.0
2018-Feb-11 19:30N 34°39' E 135°28'0 0.0
2018-Feb-11 19:00N 34°39' E 135°28'0 0.0
2018-Feb-11 18:30N 34°39' E 135°28'0 0.0
2018-Feb-11 18:00N 34°39' E 135°28'0 0.0
2018-Feb-11 17:30N 34°39' E 135°28'0 0.0
2018-Feb-11 17:01N 34°39' E 135°28'0 0.0
2018-Feb-11 16:31N 34°39' E 135°28'0 0.0
2018-Feb-11 16:01N 34°39' E 135°28'0 0.0
2018-Feb-11 15:31N 34°39' E 135°28'0 0.0
2018-Feb-11 15:00N 34°39' E 135°28'0 0.0
2018-Feb-11 14:31N 34°39' E 135°28'0 0.0
2018-Feb-11 14:00N 34°39' E 135°28'0 0.0
2018-Feb-11 13:31N 34°39' E 135°28'0 0.0
2018-Feb-11 13:00N 34°39' E 135°28'0 0.0
2018-Feb-11 12:31N 34°39' E 135°28'0 0.0
2018-Feb-11 12:00N 34°39' E 135°28'0 0.0
2018-Feb-11 11:30N 34°39' E 135°28'0 0.0
2018-Feb-11 11:00N 34°39' E 135°28'0 0.0
2018-Feb-11 10:30N 34°39' E 135°28'0 0.0
2018-Feb-11 10:00N 34°39' E 135°28'0 0.0
2018-Feb-11 09:31N 34°39' E 135°28'0 0.0
2018-Feb-11 09:00N 34°39' E 135°28'0 0.0
2018-Feb-11 08:31N 34°39' E 135°28'0 0.0
2018-Feb-11 08:00N 34°39' E 135°28'0 0.0
2018-Feb-11 07:31N 34°39' E 135°28'0 0.0
2018-Feb-11 07:01N 34°39' E 135°28'0 0.0
2018-Feb-11 06:31N 34°39' E 135°28'0 0.0
2018-Feb-11 06:00N 34°39' E 135°28'0 0.0
2018-Feb-11 05:30N 34°39' E 135°28'0 0.0
2018-Feb-11 05:00N 34°39' E 135°28'0 0.0
2018-Feb-11 04:30N 34°39' E 135°28'0 0.0
2018-Feb-11 04:01N 34°39' E 135°28'0 0.0
2018-Feb-11 03:30N 34°39' E 135°28'0 0.0
2018-Feb-11 03:00N 34°39' E 135°28'0 0.0
2018-Feb-11 02:30N 34°39' E 135°28'0 0.0
2018-Feb-11 02:00N 34°39' E 135°28'0 0.0
2018-Feb-11 01:30N 34°39' E 135°28'0 0.0
2018-Feb-11 01:00N 34°39' E 135°28'0 0.0
2018-Feb-11 00:30N 34°39' E 135°28'0 0.0
2018-Feb-11 00:00N 34°39' E 135°28'0 0.0
2018-Feb-10 23:31N 34°39' E 135°28'0 0.0
2018-Feb-10 23:01N 34°39' E 135°28'0 0.0
2018-Feb-10 22:30N 34°39' E 135°28'0 0.0
2018-Feb-10 22:01N 34°39' E 135°28'0 0.0
2018-Feb-10 21:31N 34°39' E 135°28'0 0.0
2018-Feb-10 21:00N 34°39' E 135°28'0 0.0
2018-Feb-10 20:31N 34°39' E 135°28'0 0.0
2018-Feb-10 20:01N 34°39' E 135°28'0 0.0
2018-Feb-10 19:30N 34°39' E 135°28'0 0.0
2018-Feb-10 19:00N 34°39' E 135°28'0 0.0
2018-Feb-10 18:30N 34°39' E 135°28'0 0.0
2018-Feb-10 18:01N 34°39' E 135°28'0 0.0
2018-Feb-10 17:30N 34°39' E 135°28'0 0.0
2018-Feb-10 17:00N 34°39' E 135°28'0 0.0
2018-Feb-10 16:30N 34°39' E 135°28'0 0.0
2018-Feb-10 16:01N 34°39' E 135°28'0 0.0
2018-Feb-10 15:31N 34°39' E 135°28'0 0.0
2018-Feb-10 15:01N 34°39' E 135°28'0 0.0
2018-Feb-10 14:30N 34°39' E 135°28'0 0.0
2018-Feb-10 14:01N 34°39' E 135°28'0 0.0
2018-Feb-10 13:30N 34°39' E 135°28'0 0.0
2018-Feb-10 13:00N 34°39' E 135°28'0 0.0
2018-Feb-10 12:30N 34°39' E 135°28'0 0.0
2018-Feb-10 12:01N 34°39' E 135°28'0 0.0
2018-Feb-10 11:31N 34°39' E 135°28'0 0.0
2018-Feb-10 11:01N 34°39' E 135°28'0 0.0
2018-Feb-10 10:31N 34°39' E 135°28'0 0.0
2018-Feb-10 10:00N 34°39' E 135°28'0 0.0
2018-Feb-10 09:31N 34°39' E 135°28'0 0.0
2018-Feb-10 09:01N 34°39' E 135°28'0 0.0
2018-Feb-10 08:30N 34°39' E 135°28'0 0.0
2018-Feb-10 08:00N 34°39' E 135°28'0 0.0
2018-Feb-10 07:31N 34°39' E 135°28'0 0.0
2018-Feb-10 07:00N 34°39' E 135°28'0 0.0
2018-Feb-10 06:30N 34°39' E 135°28'0 0.0
2018-Feb-10 06:01N 34°39' E 135°28'0 0.0
2018-Feb-10 05:31N 34°39' E 135°28'0 0.0
2018-Feb-10 05:00N 34°39' E 135°28'0 0.0
2018-Feb-10 04:31N 34°39' E 135°28'0 0.0
2018-Feb-10 04:00N 34°39' E 135°28'0 0.0
2018-Feb-10 03:31N 34°39' E 135°28'0 0.0
2018-Feb-10 03:00N 34°39' E 135°28'0 0.0
2018-Feb-10 02:30N 34°39' E 135°28'0 0.0
2018-Feb-10 02:01N 34°39' E 135°28'0 0.0
2018-Feb-10 01:30N 34°39' E 135°28'0 0.0
2018-Feb-10 01:01N 34°39' E 135°28'0 0.0
2018-Feb-10 00:30N 34°39' E 135°28'0 0.0
2018-Feb-10 00:00N 34°39' E 135°28'0 0.0
2018-Feb-09 23:30N 34°39' E 135°28'1 2.1
2018-Feb-09 23:00N 34°39' E 135°26'2 7.6
2018-Feb-09 22:46N 34°39' E 135°24'2 2.2
2018-Feb-09 22:01N 34°37' E 135°23'0 0.1
2018-Feb-09 21:31N 34°37' E 135°23'0 0.0
2018-Feb-09 21:01N 34°37' E 135°23'0 0.3
2018-Feb-09 20:01N 34°37' E 135°23'510.5
2018-Feb-09 19:30N 34°36' E 135°16'611.1
2018-Feb-09 19:01N 34°35' E 135°10'510.1
2018-Feb-09 18:31N 34°36' E 135°04'4 8.4
2018-Feb-09 18:01N 34°37' E 134°59'5 9.2
2018-Feb-09 17:31N 34°37' E 134°53'  
Track history (hours):
 
Tides and Currents Weather Stations Pressure Air Temp Water Temp Dewpoint Dewpoint Depression Visibility Wind Speed Wind Dir Waves Ship Positions

Tenjinmaru No11

Last reported at 2018-Feb-19 05:18 UTC. Time now 2018-Feb-19 14:17 UTC.
Position N 34°35' E 138°47'.

Length 75 m; draft 4.5 m.

Type: Cargo ship. MMSI: 431003485.

Date/timePositionNaut miles runAvg speedWind from/ knotsBaromVisibWave heightAir tempDewpointWater temp
2018-Feb-19 05:18N 34°35' E 138°47'411.6
2018-Feb-19 04:58N 34°35' E 138°51'710.3
2018-Feb-19 04:19N 34°38' E 138°59'410.7
2018-Feb-19 03:59N 34°41' E 139°02'711.6
2018-Feb-19 03:25N 34°46' E 139°07'1211.0
2018-Feb-19 02:18N 34°55' E 139°17'410.3
2018-Feb-19 01:57N 34°56' E 139°21'610.0
2018-Feb-19 01:22N 34°59' E 139°27'510.2
2018-Feb-19 00:51N 35°02' E 139°32'510.7
2018-Feb-19 00:20N 35°05' E 139°38'411.7
2018-Feb-18 23:59N 35°07' E 139°42'611.8
2018-Feb-18 23:30N 35°12' E 139°46'510.8
2018-Feb-18 23:01N 35°17' E 139°45'611.0
2018-Feb-18 22:30N 35°23' E 139°42'5 9.2
2018-Feb-18 22:00N 35°25' E 139°47'5 9.3
2018-Feb-18 21:30N 35°22' E 139°51'0 0.0
2018-Feb-18 21:00N 35°22' E 139°51'0 0.0
2018-Feb-18 20:31N 35°22' E 139°51'0 0.0
2018-Feb-18 20:01N 35°22' E 139°51'0 0.0
2018-Feb-18 19:30N 35°22' E 139°51'0 0.0
2018-Feb-18 19:01N 35°22' E 139°51'0 0.0
2018-Feb-18 18:30N 35°22' E 139°51'0 0.0
2018-Feb-18 18:01N 35°22' E 139°51'0 0.0
2018-Feb-18 17:31N 35°22' E 139°51'0 0.0
2018-Feb-18 17:00N 35°22' E 139°51'0 0.0
2018-Feb-18 16:30N 35°22' E 139°51'0 0.0
2018-Feb-18 16:00N 35°22' E 139°51'0 0.2
2018-Feb-18 15:31N 35°21' E 139°51'2 3.3
2018-Feb-18 15:00N 35°22' E 139°49'2 3.6
2018-Feb-18 14:30N 35°22' E 139°52'2 3.8
2018-Feb-18 14:00N 35°22' E 139°54'0 0.0
2018-Feb-18 13:30N 35°22' E 139°54'0 0.0
2018-Feb-18 13:00N 35°22' E 139°54'0 0.0
2018-Feb-18 12:30N 35°22' E 139°54'0 0.0
2018-Feb-18 12:00N 35°22' E 139°54'0 0.0
2018-Feb-18 11:30N 35°22' E 139°54'0 0.0
2018-Feb-18 11:00N 35°22' E 139°54'0 0.0
2018-Feb-18 10:30N 35°22' E 139°54'0 0.0
2018-Feb-18 10:00N 35°22' E 139°54'0 0.6
2018-Feb-18 09:30N 35°22' E 139°53'3 6.0
2018-Feb-18 09:00N 35°24' E 139°50'0 0.1
2018-Feb-18 08:31N 35°24' E 139°50'0 0.1
2018-Feb-18 08:00N 35°24' E 139°50'0 0.0
2018-Feb-18 07:30N 35°24' E 139°50'0 0.0
2018-Feb-18 07:00N 35°24' E 139°50'0 0.1
2018-Feb-18 06:31N 35°24' E 139°50'0 0.0
2018-Feb-18 06:00N 35°24' E 139°50'0 0.1
2018-Feb-18 05:30N 35°24' E 139°50'0 0.0
2018-Feb-18 05:01N 35°24' E 139°50'0 0.1
2018-Feb-18 04:31N 35°24' E 139°50'0 0.0
2018-Feb-18 04:00N 35°24' E 139°50'0 0.0
2018-Feb-18 03:30N 35°24' E 139°50'0 0.0
2018-Feb-18 03:00N 35°24' E 139°50'0 0.0
2018-Feb-18 02:30N 35°24' E 139°50'0 0.0
2018-Feb-18 02:00N 35°24' E 139°50'0 0.0
2018-Feb-18 01:31N 35°24' E 139°50'0 0.0
2018-Feb-18 01:00N 35°24' E 139°50'0 0.0
2018-Feb-18 00:31N 35°24' E 139°50'0 0.0
2018-Feb-18 00:00N 35°24' E 139°50'0 0.0
2018-Feb-17 23:30N 35°24' E 139°50'0 0.0
2018-Feb-17 23:00N 35°24' E 139°50'0 0.0
2018-Feb-17 22:31N 35°24' E 139°50'0 0.0
2018-Feb-17 22:01N 35°24' E 139°50'0 0.0
2018-Feb-17 21:30N 35°24' E 139°50'0 0.0
2018-Feb-17 21:00N 35°24' E 139°50'0 0.0
2018-Feb-17 20:30N 35°24' E 139°50'0 0.0
2018-Feb-17 20:01N 35°24' E 139°50'0 0.0
2018-Feb-17 19:31N 35°24' E 139°50'0 0.0
2018-Feb-17 19:00N 35°24' E 139°50'0 0.0
2018-Feb-17 18:30N 35°24' E 139°50'0 0.0
2018-Feb-17 18:00N 35°24' E 139°50'0 0.0
2018-Feb-17 17:30N 35°24' E 139°50'0 0.0
2018-Feb-17 17:00N 35°24' E 139°50'0 0.0
2018-Feb-17 16:30N 35°24' E 139°50'0 0.0
2018-Feb-17 16:00N 35°24' E 139°50'0 0.1
2018-Feb-17 15:30N 35°24' E 139°50'0 0.1
2018-Feb-17 15:01N 35°24' E 139°50'0 0.0
2018-Feb-17 14:30N 35°24' E 139°50'0 0.0
2018-Feb-17 14:00N 35°24' E 139°50'0 0.0
2018-Feb-17 13:31N 35°24' E 139°50'0 0.0
2018-Feb-17 13:00N 35°24' E 139°50'0 0.0
2018-Feb-17 12:30N 35°24' E 139°50'0 0.0
2018-Feb-17 12:00N 35°24' E 139°50'0 0.0
2018-Feb-17 11:30N 35°24' E 139°50'0 0.0
2018-Feb-17 11:01N 35°24' E 139°50'0 0.0
2018-Feb-17 10:31N 35°24' E 139°50'0 0.0
2018-Feb-17 10:00N 35°24' E 139°50'0 0.0
2018-Feb-17 09:30N 35°24' E 139°50'0 0.0
2018-Feb-17 09:00N 35°24' E 139°50'0 0.0
2018-Feb-17 08:30N 35°24' E 139°50'0 0.0
2018-Feb-17 08:00N 35°24' E 139°50'0 0.0
2018-Feb-17 07:31N 35°24' E 139°50'0 0.0
2018-Feb-17 07:01N 35°24' E 139°50'0 0.0
2018-Feb-17 06:30N 35°24' E 139°50'0 0.0
2018-Feb-17 06:00N 35°24' E 139°50'0 0.1
2018-Feb-17 05:30N 35°24' E 139°50'0 0.0
2018-Feb-17 05:00N 35°24' E 139°50'2 3.5
2018-Feb-17 04:30N 35°22' E 139°50'1 1.5
2018-Feb-17 04:00N 35°22' E 139°51'0 0.0
2018-Feb-17 03:30N 35°22' E 139°51'0 0.0
2018-Feb-17 03:00N 35°22' E 139°51'0 0.0
2018-Feb-17 02:30N 35°22' E 139°51'0 0.0
2018-Feb-17 02:01N 35°22' E 139°51'0 0.0
2018-Feb-17 01:29N 35°22' E 139°51'0 0.0
2018-Feb-17 01:00N 35°22' E 139°51'0 0.0
2018-Feb-17 00:30N 35°22' E 139°51'0 0.0
2018-Feb-17 00:00N 35°22' E 139°51'0 0.0
2018-Feb-16 23:30N 35°22' E 139°51'0 0.0
2018-Feb-16 23:00N 35°22' E 139°51'0 0.0
2018-Feb-16 22:30N 35°22' E 139°51'0 0.0
2018-Feb-16 22:00N 35°22' E 139°51'0 0.0
2018-Feb-16 21:30N 35°22' E 139°51'0 0.0
2018-Feb-16 21:00N 35°22' E 139°51'0 0.0
2018-Feb-16 20:30N 35°22' E 139°51'0 0.2
2018-Feb-16 20:00N 35°21' E 139°51'4 8.6
2018-Feb-16 19:30N 35°24' E 139°47'510.6
2018-Feb-16 19:01N 35°19' E 139°44'611.1
2018-Feb-16 18:30N 35°14' E 139°47'611.1
2018-Feb-16 18:00N 35°09' E 139°47'610.8
2018-Feb-16 17:29N 35°03' E 139°45'18 6.8
2018-Feb-16 14:53N 34°58' E 140°06'5 0.2
2018-Feb-15 16:58N 35°00' E 140°12'510.5
2018-Feb-15 16:30N 34°58' E 140°07'710.3
2018-Feb-15 15:47N 34°54' E 139°59'16 8.2
2018-Feb-15 13:49N 35°03' E 139°43'310.6
2018-Feb-15 13:30N 35°06' E 139°44'611.8
2018-Feb-15 13:00N 35°12' E 139°46'611.7
2018-Feb-15 12:30N 35°18' E 139°44'5 9.0
2018-Feb-15 11:59N 35°21' E 139°40'0 0.1
2018-Feb-15 11:29N 35°21' E 139°40'0 0.0
2018-Feb-15 10:59N 35°21' E 139°40'0 0.0
2018-Feb-15 10:29N 35°21' E 139°40'0 0.0
2018-Feb-15 09:59N 35°21' E 139°40'0 0.0
2018-Feb-15 09:26N 35°21' E 139°40'0 0.1
2018-Feb-15 08:59N 35°21' E 139°40'0 0.1
2018-Feb-15 08:29N 35°21' E 139°40'0 0.1
2018-Feb-15 07:59N 35°21' E 139°40'0 0.0
2018-Feb-15 07:29N 35°21' E 139°40'0 0.1
2018-Feb-15 07:01N 35°21' E 139°40'0 0.0
2018-Feb-15 06:30N 35°21' E 139°40'0 0.0
2018-Feb-15 06:00N 35°21' E 139°40'0 0.0
2018-Feb-15 05:30N 35°21' E 139°40'0 0.0
2018-Feb-15 05:00N 35°21' E 139°40'0 0.1
2018-Feb-15 04:30N 35°21' E 139°40'0 0.1
2018-Feb-15 04:01N 35°21' E 139°40'3 6.5
2018-Feb-15 03:30N 35°24' E 139°43'611.2
2018-Feb-15 03:00N 35°28' E 139°48'911.4
2018-Feb-15 02:11N 35°33' E 139°58'211.5
2018-Feb-15 02:00N 35°34' E 139°60'510.6
2018-Feb-15 01:30N 35°36' E 140°05'1 1.5
2018-Feb-15 01:00N 35°37' E 140°05'0 0.0
2018-Feb-15 00:30N 35°37' E 140°05'0 0.0
2018-Feb-15 00:00N 35°37' E 140°05'0 0.0
2018-Feb-14 23:30N 35°37' E 140°05'0 0.5
2018-Feb-14 23:00N 35°37' E 140°05'3 5.3
2018-Feb-14 22:30N 35°34' E 140°03'0 0.0
2018-Feb-14 22:00N 35°34' E 140°03'0 0.0
2018-Feb-14 21:30N 35°34' E 140°03'0 0.1
2018-Feb-14 21:00N 35°34' E 140°03'0 0.1
2018-Feb-14 20:30N 35°34' E 140°03'0 0.0
2018-Feb-14 20:00N 35°34' E 140°03'0 0.0
2018-Feb-14 19:30N 35°34' E 140°03'0 0.1
2018-Feb-14 19:00N 35°34' E 140°03'0 0.1
2018-Feb-14 18:30N 35°34' E 140°03'0 0.1
2018-Feb-14 18:00N 35°34' E 140°03'0 0.1
2018-Feb-14 17:30N 35°34' E 140°03'0 0.1
2018-Feb-14 17:00N 35°34' E 140°03'0 0.0
2018-Feb-14 16:30N 35°34' E 140°03'0 0.0
2018-Feb-14 16:00N 35°34' E 140°03'0 0.0
2018-Feb-14 15:30N 35°34' E 140°03'0 0.1
2018-Feb-14 15:00N 35°34' E 140°03'0 0.1
2018-Feb-14 14:30N 35°34' E 140°03'0 0.1
2018-Feb-14 14:00N 35°34' E 140°03'0 0.1
2018-Feb-14 13:30N 35°34' E 140°03'0 0.0
2018-Feb-14 13:00N 35°34' E 140°03'0 0.1
2018-Feb-14 12:30N 35°34' E 140°03'0 0.1
2018-Feb-14 12:00N 35°34' E 140°03'0 0.1
2018-Feb-14 11:30N 35°34' E 140°03'0 0.1
2018-Feb-14 11:00N 35°34' E 140°03'0 0.1
2018-Feb-14 10:30N 35°34' E 140°03'0 0.0
2018-Feb-14 10:00N 35°34' E 140°03'1 2.5
2018-Feb-14 09:30N 35°34' E 140°02'811.3
2018-Feb-14 08:47N 35°30' E 139°53'311.3
2018-Feb-14 08:31N 35°28' E 139°51'611.2
2018-Feb-14 08:01N 35°23' E 139°46'610.6
2018-Feb-14 07:29N 35°18' E 139°45'510.5
2018-Feb-14 07:01N 35°13' E 139°47'510.6
2018-Feb-14 06:30N 35°08' E 139°46'510.9
2018-Feb-14 06:00N 35°04' E 139°41'611.9
2018-Feb-14 05:29N 35°00' E 139°35'1013.7
2018-Feb-14 04:45N 34°55' E 139°25'513.7
2018-Feb-14 04:26N 34°52' E 139°21'613.5
2018-Feb-14 04:00N 34°48' E 139°16'912.6
2018-Feb-14 03:17N 34°42' E 139°07'311.6
2018-Feb-14 03:00N 34°40' E 139°04'611.4
2018-Feb-14 02:30N 34°37' E 138°58'611.9
2018-Feb-14 02:00N 34°35' E 138°52'611.9
2018-Feb-14 01:30N 34°34' E 138°45'610.7
2018-Feb-14 00:58N 34°33' E 138°38'510.4
2018-Feb-14 00:28N 34°33' E 138°31'510.8
2018-Feb-13 23:59N 34°32' E 138°25'711.5
2018-Feb-13 23:25N 34°32' E 138°17'612.6
2018-Feb-13 22:54N 34°31' E 138°09'160 9.4
2018-Feb-13 05:49N 33°53' E 135°02'411.5
2018-Feb-13 05:30N 33°56' E 135°01'611.8
2018-Feb-13 05:00N 34°02' E 135°01'611.9
2018-Feb-13 04:31N 34°08' E 135°02'611.9
2018-Feb-13 04:00N 34°14' E 135°03'612.3
2018-Feb-13 03:31N 34°20' E 135°05'5 9.8
2018-Feb-13 03:01N 34°23' E 135°09'0 0.1
2018-Feb-13 02:30N 34°23' E 135°09'0 0.1
2018-Feb-13 02:01N 34°23' E 135°09'0 0.0
2018-Feb-13 01:31N 34°23' E 135°09'0 0.0
2018-Feb-13 01:01N 34°23' E 135°09'0 0.0
2018-Feb-13 00:30N 34°23' E 135°09'0 0.0
2018-Feb-13 00:01N 34°23' E 135°09'0 0.0
2018-Feb-12 23:30N 34°23' E 135°09'0 0.0
2018-Feb-12 23:01N 34°23' E 135°09'0 0.0
2018-Feb-12 22:30N 34°23' E 135°09'0 0.0
2018-Feb-12 22:00N 34°23' E 135°09'0 0.0
2018-Feb-12 21:31N 34°23' E 135°09'0 0.0
2018-Feb-12 21:01N 34°23' E 135°09'0 0.0
2018-Feb-12 20:30N 34°23' E 135°09'0 0.0
2018-Feb-12 20:00N 34°23' E 135°09'0 0.0
2018-Feb-12 19:30N 34°23' E 135°09'0 0.0
2018-Feb-12 19:00N 34°23' E 135°09'0 0.0
2018-Feb-12 18:30N 34°23' E 135°09'0 0.0
2018-Feb-12 18:01N 34°23' E 135°09'0 0.0
2018-Feb-12 17:31N 34°23' E 135°09'0 0.1
2018-Feb-12 17:01N 34°23' E 135°09'0 0.0
2018-Feb-12 16:30N 34°23' E 135°09'0 0.0
2018-Feb-12 16:01N 34°23' E 135°09'0 0.0
2018-Feb-12 15:31N 34°23' E 135°09'0 0.0
2018-Feb-12 15:00N 34°23' E 135°09'0 0.0
2018-Feb-12 14:30N 34°23' E 135°09'0 0.0
2018-Feb-12 14:01N 34°23' E 135°09'0 0.0
2018-Feb-12 13:31N 34°23' E 135°09'0 0.1
2018-Feb-12 13:01N 34°23' E 135°09'0 0.0
2018-Feb-12 12:30N 34°23' E 135°09'0 0.0
2018-Feb-12 12:00N 34°23' E 135°09'0 0.0
2018-Feb-12 11:31N 34°23' E 135°09'0 0.0
2018-Feb-12 11:01N 34°23' E 135°09'0 0.0
2018-Feb-12 10:30N 34°23' E 135°09'0 0.0
2018-Feb-12 10:01N 34°23' E 135°09'0 0.0
2018-Feb-12 09:31N 34°23' E 135°09'0 0.0
2018-Feb-12 09:00N 34°23' E 135°09'0 0.0
2018-Feb-12 08:30N 34°23' E 135°09'0 0.1
2018-Feb-12 08:00N 34°23' E 135°09'0 0.0
2018-Feb-12 07:31N 34°23' E 135°09'0 0.0
2018-Feb-12 07:01N 34°23' E 135°09'0 0.0
2018-Feb-12 06:31N 34°23' E 135°09'0 0.0
2018-Feb-12 06:01N 34°23' E 135°09'0 0.0
2018-Feb-12 05:31N 34°23' E 135°09'0 0.0
2018-Feb-12 05:00N 34°23' E 135°09'0 0.0
2018-Feb-12 04:31N 34°23' E 135°09'0 0.0
2018-Feb-12 04:00N 34°23' E 135°09'0 0.0
2018-Feb-12 03:31N 34°23' E 135°09'0 0.0
2018-Feb-12 03:00N 34°23' E 135°09'0 0.0
2018-Feb-12 02:30N 34°23' E 135°09'0 0.0
2018-Feb-12 02:01N 34°23' E 135°09'0 0.0
2018-Feb-12 01:30N 34°23' E 135°09'0 0.0
2018-Feb-12 01:01N 34°23' E 135°09'0 0.0
2018-Feb-12 00:31N 34°23' E 135°09'4 7.9
2018-Feb-12 00:00N 34°27' E 135°12'510.8
2018-Feb-11 23:30N 34°31' E 135°16'510.7
2018-Feb-11 23:01N 34°35' E 135°20'510.6
2018-Feb-11 22:30N 34°39' E 135°24'3 5.7
2018-Feb-11 22:00N 34°39' E 135°28'0 0.0
2018-Feb-11 21:31N 34°39' E 135°28'0 0.0
2018-Feb-11 21:01N 34°39' E 135°28'0 0.0
2018-Feb-11 20:30N 34°39' E 135°28'0 0.0
2018-Feb-11 20:00N 34°39' E 135°28'0 0.0
2018-Feb-11 19:30N 34°39' E 135°28'0 0.0
2018-Feb-11 19:00N 34°39' E 135°28'0 0.0
2018-Feb-11 18:30N 34°39' E 135°28'0 0.0
2018-Feb-11 18:00N 34°39' E 135°28'0 0.0
2018-Feb-11 17:30N 34°39' E 135°28'0 0.0
2018-Feb-11 17:01N 34°39' E 135°28'0 0.0
2018-Feb-11 16:31N 34°39' E 135°28'0 0.0
2018-Feb-11 16:01N 34°39' E 135°28'0 0.0
2018-Feb-11 15:31N 34°39' E 135°28'0 0.0
2018-Feb-11 15:00N 34°39' E 135°28'0 0.0
2018-Feb-11 14:31N 34°39' E 135°28'0 0.0
2018-Feb-11 14:00N 34°39' E 135°28'0 0.0
2018-Feb-11 13:31N 34°39' E 135°28'0 0.0
2018-Feb-11 13:00N 34°39' E 135°28'0 0.0
2018-Feb-11 12:31N 34°39' E 135°28'0 0.0
2018-Feb-11 12:00N 34°39' E 135°28'0 0.0
2018-Feb-11 11:30N 34°39' E 135°28'0 0.0
2018-Feb-11 11:00N 34°39' E 135°28'0 0.0
2018-Feb-11 10:30N 34°39' E 135°28'0 0.0
2018-Feb-11 10:00N 34°39' E 135°28'0 0.0
2018-Feb-11 09:31N 34°39' E 135°28'0 0.0
2018-Feb-11 09:00N 34°39' E 135°28'0 0.0
2018-Feb-11 08:31N 34°39' E 135°28'0 0.0
2018-Feb-11 08:00N 34°39' E 135°28'0 0.0
2018-Feb-11 07:31N 34°39' E 135°28'0 0.0
2018-Feb-11 07:01N 34°39' E 135°28'0 0.0
2018-Feb-11 06:31N 34°39' E 135°28'0 0.0
2018-Feb-11 06:00N 34°39' E 135°28'0 0.0
2018-Feb-11 05:30N 34°39' E 135°28'0 0.0
2018-Feb-11 05:00N 34°39' E 135°28'0 0.0
2018-Feb-11 04:30N 34°39' E 135°28'0 0.0
2018-Feb-11 04:01N 34°39' E 135°28'0 0.0
2018-Feb-11 03:30N 34°39' E 135°28'0 0.0
2018-Feb-11 03:00N 34°39' E 135°28'0 0.0
2018-Feb-11 02:30N 34°39' E 135°28'0 0.0
2018-Feb-11 02:00N 34°39' E 135°28'0 0.0
2018-Feb-11 01:30N 34°39' E 135°28'0 0.0
2018-Feb-11 01:00N 34°39' E 135°28'0 0.0
2018-Feb-11 00:30N 34°39' E 135°28'0 0.0
2018-Feb-11 00:00N 34°39' E 135°28'0 0.0
2018-Feb-10 23:31N 34°39' E 135°28'0 0.0
2018-Feb-10 23:01N 34°39' E 135°28'0 0.0
2018-Feb-10 22:30N 34°39' E 135°28'0 0.0
2018-Feb-10 22:01N 34°39' E 135°28'0 0.0
2018-Feb-10 21:31N 34°39' E 135°28'0 0.0
2018-Feb-10 21:00N 34°39' E 135°28'0 0.0
2018-Feb-10 20:31N 34°39' E 135°28'0 0.0
2018-Feb-10 20:01N 34°39' E 135°28'0 0.0
2018-Feb-10 19:30N 34°39' E 135°28'0 0.0
2018-Feb-10 19:00N 34°39' E 135°28'0 0.0
2018-Feb-10 18:30N 34°39' E 135°28'0 0.0
2018-Feb-10 18:01N 34°39' E 135°28'0 0.0
2018-Feb-10 17:30N 34°39' E 135°28'0 0.0
2018-Feb-10 17:00N 34°39' E 135°28'0 0.0
2018-Feb-10 16:30N 34°39' E 135°28'0 0.0
2018-Feb-10 16:01N 34°39' E 135°28'0 0.0
2018-Feb-10 15:31N 34°39' E 135°28'0 0.0
2018-Feb-10 15:01N 34°39' E 135°28'0 0.0
2018-Feb-10 14:30N 34°39' E 135°28'0 0.0
2018-Feb-10 14:01N 34°39' E 135°28'0 0.0
2018-Feb-10 13:30N 34°39' E 135°28'0 0.0
2018-Feb-10 13:00N 34°39' E 135°28'0 0.0
2018-Feb-10 12:30N 34°39' E 135°28'0 0.0
2018-Feb-10 12:01N 34°39' E 135°28'0 0.0
2018-Feb-10 11:31N 34°39' E 135°28'0 0.0
2018-Feb-10 11:01N 34°39' E 135°28'0 0.0
2018-Feb-10 10:31N 34°39' E 135°28'0 0.0
2018-Feb-10 10:00N 34°39' E 135°28'0 0.0
2018-Feb-10 09:31N 34°39' E 135°28'0 0.0
2018-Feb-10 09:01N 34°39' E 135°28'0 0.0
2018-Feb-10 08:30N 34°39' E 135°28'0 0.0
2018-Feb-10 08:00N 34°39' E 135°28'0 0.0
2018-Feb-10 07:31N 34°39' E 135°28'0 0.0
2018-Feb-10 07:00N 34°39' E 135°28'0 0.0
2018-Feb-10 06:30N 34°39' E 135°28'0 0.0
2018-Feb-10 06:01N 34°39' E 135°28'0 0.0
2018-Feb-10 05:31N 34°39' E 135°28'0 0.0
2018-Feb-10 05:00N 34°39' E 135°28'0 0.0
2018-Feb-10 04:31N 34°39' E 135°28'0 0.0
2018-Feb-10 04:00N 34°39' E 135°28'0 0.0
2018-Feb-10 03:31N 34°39' E 135°28'0 0.0
2018-Feb-10 03:00N 34°39' E 135°28'0 0.0
2018-Feb-10 02:30N 34°39' E 135°28'0 0.0
2018-Feb-10 02:01N 34°39' E 135°28'0 0.0
2018-Feb-10 01:30N 34°39' E 135°28'0 0.0
2018-Feb-10 01:01N 34°39' E 135°28'0 0.0
2018-Feb-10 00:30N 34°39' E 135°28'0 0.0
2018-Feb-10 00:00N 34°39' E 135°28'0 0.0
2018-Feb-09 23:30N 34°39' E 135°28'1 2.1
2018-Feb-09 23:00N 34°39' E 135°26'2 7.6
2018-Feb-09 22:46N 34°39' E 135°24'2 2.2
2018-Feb-09 22:01N 34°37' E 135°23'0 0.1
2018-Feb-09 21:31N 34°37' E 135°23'0 0.0
2018-Feb-09 21:01N 34°37' E 135°23'0 0.3
2018-Feb-09 20:01N 34°37' E 135°23'510.5
2018-Feb-09 19:30N 34°36' E 135°16'611.1
2018-Feb-09 19:01N 34°35' E 135°10'510.1
2018-Feb-09 18:31N 34°36' E 135°04'4 8.4
2018-Feb-09 18:01N 34°37' E 134°59'5 9.2
2018-Feb-09 17:31N 34°37' E 134°53'  

Dump ship's entire track history